createdAt,value
2019-02-12T00:01:02.875Z,94.60
2019-02-12T00:03:31.557Z,94.40
2019-02-12T00:06:00.150Z,94.30
2019-02-12T00:08:28.743Z,94.20
2019-02-12T00:10:57.355Z,94.00
2019-02-12T00:13:45.288Z,94.00
2019-02-12T00:16:14.236Z,94.00
2019-02-12T00:18:42.956Z,94.00
2019-02-12T00:21:11.539Z,93.80
2019-02-12T00:23:40.121Z,94.00
2019-02-12T00:26:08.786Z,94.00
2019-02-12T00:28:37.386Z,94.10
2019-02-12T00:31:05.980Z,94.50
2019-02-12T00:33:34.551Z,94.80
2019-02-12T00:36:03.151Z,95.00
2019-02-12T00:38:31.980Z,95.30
2019-02-12T00:41:00.568Z,95.30
2019-02-12T00:43:29.183Z,95.30
2019-02-12T00:45:57.767Z,95.10
2019-02-12T00:48:26.351Z,95.30
2019-02-12T00:50:54.920Z,95.40
2019-02-12T00:53:23.495Z,95.70
2019-02-12T00:55:52.104Z,95.20
2019-02-12T00:58:20.761Z,95.10
2019-02-12T01:00:52.170Z,95.10
2019-02-12T01:03:20.785Z,95.10
2019-02-12T01:05:49.608Z,94.90
2019-02-12T01:08:18.191Z,95.10
2019-02-12T01:10:46.931Z,95.10
2019-02-12T01:13:15.959Z,95.10
2019-02-12T01:15:44.551Z,95.00
2019-02-12T01:18:13.172Z,95.10
2019-02-12T01:20:41.828Z,94.90
2019-02-12T01:23:10.407Z,94.70
2019-02-12T01:25:39.008Z,94.60
2019-02-12T01:28:07.569Z,94.60
2019-02-12T01:30:36.513Z,94.60
2019-02-12T01:33:05.095Z,94.70
2019-02-12T01:35:33.698Z,94.40
2019-02-12T01:38:02.290Z,94.30
2019-02-12T01:40:31.196Z,94.30
2019-02-12T01:42:59.767Z,94.30
2019-02-12T01:45:28.380Z,94.60
2019-02-12T01:47:56.966Z,94.50
2019-02-12T01:50:25.600Z,94.50
2019-02-12T01:52:54.197Z,94.60
2019-02-12T01:55:22.804Z,94.60
2019-02-12T01:57:51.367Z,94.50
2019-02-12T02:00:19.958Z,94.60
2019-02-12T02:02:48.672Z,94.60
2019-02-12T02:05:17.309Z,94.70
2019-02-12T02:07:45.979Z,94.60
2019-02-12T02:10:16.789Z,94.80
2019-02-12T02:12:45.455Z,94.70
2019-02-12T02:15:14.160Z,94.70
2019-02-12T02:17:42.797Z,94.60
2019-02-12T02:20:11.976Z,94.60
2019-02-12T02:22:40.576Z,94.60
2019-02-12T02:25:09.726Z,94.70
2019-02-12T02:27:38.307Z,94.90
2019-02-12T02:30:08.394Z,95.00
2019-02-12T02:32:36.977Z,95.00
2019-02-12T02:35:05.660Z,95.00
2019-02-12T02:37:34.299Z,95.00
2019-02-12T02:40:02.905Z,94.90
2019-02-12T02:42:31.500Z,95.00
2019-02-12T02:45:00.198Z,95.10
2019-02-12T02:47:28.867Z,95.20
2019-02-12T02:49:57.451Z,95.20
2019-02-12T02:52:26.015Z,95.30
2019-02-12T02:54:54.668Z,95.30
2019-02-12T02:57:23.262Z,95.30
2019-02-12T02:59:51.864Z,95.30
2019-02-12T03:02:20.460Z,95.20
2019-02-12T03:04:51.663Z,95.20
2019-02-12T03:07:20.281Z,95.10
2019-02-12T03:09:49.147Z,95.10
2019-02-12T03:12:17.768Z,95.10
2019-02-12T03:14:46.397Z,95.20
2019-02-12T03:17:15.086Z,95.10
2019-02-12T03:19:43.705Z,95.10
2019-02-12T03:22:12.627Z,95.00
2019-02-12T03:24:41.183Z,95.20
2019-02-12T03:27:09.757Z,95.20
2019-02-12T03:29:38.328Z,95.10
2019-02-12T03:32:07.085Z,95.10
2019-02-12T03:34:35.691Z,95.20
2019-02-12T03:37:04.270Z,95.30
2019-02-12T03:39:32.864Z,95.10
2019-02-12T03:42:01.458Z,95.10
2019-02-12T03:44:30.071Z,95.10
2019-02-12T03:46:58.697Z,94.90
2019-02-12T03:49:27.287Z,95.10
2019-02-12T03:51:55.881Z,95.10
2019-02-12T03:54:24.454Z,95.00
2019-02-12T03:56:53.038Z,94.90
2019-02-12T03:59:21.627Z,94.90
2019-02-12T04:01:50.397Z,95.00
2019-02-12T04:04:19.013Z,95.20
2019-02-12T04:06:47.761Z,95.00
2019-02-12T04:09:16.360Z,95.00
2019-02-12T04:11:44.995Z,95.00
2019-02-12T04:14:13.616Z,95.00
2019-02-12T04:16:42.254Z,95.00
2019-02-12T04:19:10.835Z,95.00
2019-02-12T04:21:39.425Z,95.00
2019-02-12T04:24:08.105Z,95.30
2019-02-12T04:26:37.073Z,95.20
2019-02-12T04:29:05.754Z,95.10
2019-02-12T04:31:34.315Z,95.00
2019-02-12T04:34:02.897Z,94.90
2019-02-12T04:36:31.552Z,94.90
2019-02-12T04:39:00.213Z,94.90
2019-02-12T04:41:28.834Z,95.00
2019-02-12T04:43:57.435Z,95.10
2019-02-12T04:46:26.004Z,95.20
2019-02-12T04:48:54.586Z,95.40
2019-02-12T04:51:23.168Z,95.70
2019-02-12T04:53:51.786Z,95.40
2019-02-12T04:56:20.439Z,95.40
2019-02-12T04:58:49.457Z,95.40
2019-02-12T05:01:18.047Z,95.40
2019-02-12T05:03:46.915Z,95.40
2019-02-12T05:06:15.528Z,95.30
2019-02-12T05:09:20.916Z,95.40
2019-02-12T05:11:52.275Z,95.40
2019-02-12T05:14:20.887Z,95.30
2019-02-12T05:16:49.747Z,95.10
2019-02-12T05:19:18.404Z,95.00
2019-02-12T05:21:47.170Z,95.20
2019-02-12T05:24:15.805Z,95.30
2019-02-12T05:26:44.384Z,95.20
2019-02-12T05:29:12.958Z,95.20
2019-02-12T05:31:41.553Z,95.10
2019-02-12T05:34:29.472Z,95.20
2019-02-12T05:36:58.101Z,95.10
2019-02-12T05:39:26.732Z,95.10
2019-02-12T05:41:55.317Z,95.10
2019-02-12T05:44:23.931Z,95.00
2019-02-12T05:46:52.506Z,95.20
2019-02-12T05:49:21.102Z,95.30
2019-02-12T05:51:52.512Z,95.50
2019-02-12T05:54:21.096Z,95.40
2019-02-12T05:56:50.196Z,95.50
2019-02-12T05:59:18.916Z,95.40
2019-02-12T06:01:47.761Z,95.40
2019-02-12T06:04:16.361Z,95.30
2019-02-12T06:06:44.915Z,95.40
2019-02-12T06:09:13.525Z,95.30
2019-02-12T06:11:42.176Z,95.40
2019-02-12T06:14:11.201Z,95.40
2019-02-12T06:16:39.763Z,95.40
2019-02-12T06:19:08.364Z,95.50
2019-02-12T06:21:36.984Z,95.70
2019-02-12T06:24:05.559Z,95.70
2019-02-12T06:26:34.177Z,95.80
2019-02-12T06:29:02.772Z,95.70
2019-02-12T06:31:31.365Z,95.90
2019-02-12T06:33:59.927Z,95.80
2019-02-12T06:36:28.524Z,95.80
2019-02-12T06:38:57.190Z,95.80
2019-02-12T06:41:25.794Z,95.70
2019-02-12T06:43:54.381Z,95.90
2019-02-12T06:46:22.955Z,95.90
2019-02-12T06:48:51.536Z,96.30
2019-02-12T06:51:20.139Z,96.30
2019-02-12T06:53:48.974Z,96.50
2019-02-12T06:56:17.562Z,96.70
2019-02-12T06:58:46.156Z,96.90
2019-02-12T07:01:14.795Z,97.10
2019-02-12T07:04:16.191Z,97.20
2019-02-12T07:07:13.554Z,97.20
2019-02-12T07:09:54.777Z,97.30
2019-02-12T07:12:58.361Z,97.30
2019-02-12T07:15:37.639Z,97.30
2019-02-12T07:18:54.529Z,97.30
2019-02-12T07:21:45.396Z,97.30
2019-02-12T07:24:38.381Z,97.40
2019-02-12T07:27:50.875Z,97.20
2019-02-12T07:30:59.705Z,97.20
2019-02-12T07:33:55.145Z,97.10
2019-02-12T07:36:54.844Z,97.20
2019-02-12T07:40:07.551Z,97.10
2019-02-12T07:43:08.480Z,96.90
2019-02-12T07:46:23.106Z,96.90
2019-02-12T07:49:23.511Z,96.80
2019-02-12T07:52:16.559Z,96.70
2019-02-12T07:55:11.539Z,96.60
2019-02-12T07:58:39.770Z,96.50
2019-02-12T08:01:38.214Z,96.60
2019-02-12T08:04:33.038Z,96.50
2019-02-12T08:07:27.520Z,96.20
2019-02-12T08:10:41.819Z,95.90
2019-02-12T08:13:46.175Z,95.70
2019-02-12T08:16:40.863Z,95.90
2019-02-12T08:20:09.176Z,95.90
2019-02-12T08:23:26.423Z,95.90
2019-02-12T08:26:11.031Z,96.00
2019-02-12T08:29:33.369Z,96.00
2019-02-12T08:32:13.531Z,95.70
2019-02-12T08:35:57.078Z,95.80
2019-02-12T08:39:05.599Z,95.80
2019-02-12T08:42:25.072Z,95.70
2019-02-12T08:45:06.246Z,95.70
2019-02-12T08:48:14.964Z,95.70
2019-02-12T08:51:06.063Z,95.50
2019-02-12T08:54:15.279Z,95.40
2019-02-12T08:56:54.957Z,95.30
2019-02-12T08:59:42.700Z,95.20
2019-02-12T09:02:29.550Z,95.30
2019-02-12T09:05:50.671Z,95.20
2019-02-12T09:08:53.049Z,95.20
2019-02-12T09:12:09.245Z,95.00
2019-02-12T09:15:02.946Z,95.00
2019-02-12T09:18:13.531Z,94.80
2019-02-12T09:20:50.684Z,94.50
2019-02-12T09:23:49.086Z,94.50
2019-02-12T09:27:00.222Z,94.30
2019-02-12T09:29:58.342Z,94.20
2019-02-12T09:32:52.704Z,94.10
2019-02-12T09:35:29.985Z,94.00
2019-02-12T09:38:34.273Z,94.20
2019-02-12T09:41:25.279Z,94.20
2019-02-12T09:44:43.117Z,94.20
2019-02-12T09:48:20.320Z,94.30
2019-02-12T09:51:15.453Z,94.40
2019-02-12T09:54:14.244Z,94.70
2019-02-12T09:57:08.888Z,93.80
2019-02-12T10:00:17.403Z,93.60
2019-02-12T10:03:22.843Z,94.00
2019-02-12T10:06:32.005Z,93.00
2019-02-12T10:09:41.310Z,93.00
2019-02-12T10:13:03.145Z,92.70
2019-02-12T10:16:04.081Z,92.80
2019-02-12T10:19:09.917Z,92.10
2019-02-12T10:22:41.303Z,91.80
2019-02-12T10:25:33.704Z,91.80
2019-02-12T10:28:53.063Z,92.30
2019-02-12T10:31:48.354Z,91.80
2019-02-12T10:34:20.113Z,91.70
2019-02-12T10:36:51.595Z,90.10
2019-02-12T10:39:20.918Z,89.90
2019-02-12T10:41:49.866Z,89.80
2019-02-12T10:44:19.003Z,90.00
2019-02-12T10:46:49.986Z,89.20
2019-02-12T10:49:19.586Z,89.30
2019-02-12T10:51:51.055Z,89.30
2019-02-12T10:54:27.754Z,88.50
2019-02-12T10:56:50.689Z,87.90
2019-02-12T10:59:19.512Z,87.30
2019-02-12T11:01:48.904Z,87.60
2019-02-12T11:04:21.929Z,87.00
2019-02-12T11:06:50.824Z,85.40
2019-02-12T11:09:19.831Z,86.50
2019-02-12T11:11:49.160Z,85.00
2019-02-12T11:14:18.062Z,86.20
2019-02-12T11:16:50.034Z,86.70
2019-02-12T11:19:18.949Z,86.30
2019-02-12T11:21:50.167Z,86.30
2019-02-12T11:24:21.971Z,86.40
2019-02-12T11:26:50.952Z,86.90
2019-02-12T11:29:19.959Z,84.80
2019-02-12T11:31:50.585Z,85.30
2019-02-12T11:34:19.444Z,85.60
2019-02-12T11:36:51.385Z,86.60
2019-02-12T11:39:20.427Z,85.60
2019-02-12T11:41:49.816Z,85.00
2019-02-12T11:44:19.149Z,84.50
2019-02-12T11:46:51.504Z,83.80
2019-02-12T11:49:20.676Z,83.60
2019-02-12T11:51:53.436Z,83.20
2019-02-12T11:54:22.212Z,84.30
2019-02-12T11:56:51.076Z,81.70
2019-02-12T11:59:19.917Z,82.50
2019-02-12T12:01:49.038Z,82.80
2019-02-12T12:04:18.069Z,81.70
2019-02-12T12:06:49.734Z,81.80
2019-02-12T12:09:18.621Z,81.60
2019-02-12T12:11:47.778Z,80.60
2019-02-12T12:14:16.797Z,80.20
2019-02-12T12:16:49.427Z,81.20
2019-02-12T12:19:18.529Z,81.90
2019-02-12T12:21:50.368Z,80.70
2019-02-12T12:24:20.547Z,81.30
2019-02-12T12:26:52.316Z,83.00
2019-02-12T12:29:21.790Z,82.40
2019-02-12T12:31:50.739Z,81.40
2019-02-12T12:34:24.148Z,81.80
2019-02-12T12:36:56.081Z,81.90
2019-02-12T12:42:14.340Z,81.00
2019-02-12T12:44:43.332Z,82.30
2019-02-12T12:47:13.105Z,81.60
2019-02-12T12:49:44.097Z,82.10
2019-02-12T12:52:12.786Z,82.10
2019-02-12T12:55:00.930Z,82.80
2019-02-12T12:57:29.567Z,82.90
2019-02-12T12:59:58.627Z,84.10
2019-02-12T13:02:27.401Z,84.90
2019-02-12T13:04:56.019Z,84.10
2019-02-12T13:07:25.392Z,85.10
2019-02-12T13:09:54.058Z,84.50
2019-02-12T13:12:22.654Z,83.80
2019-02-12T13:14:51.276Z,84.10
2019-02-12T13:17:20.373Z,84.10
2019-02-12T13:19:49.195Z,84.20
2019-02-12T13:22:17.806Z,83.60
2019-02-12T13:24:46.536Z,83.60
2019-02-12T13:27:15.426Z,84.70
2019-02-12T13:29:44.008Z,84.80
2019-02-12T13:32:12.593Z,84.60
2019-02-12T13:34:41.214Z,84.60
2019-02-12T13:37:09.793Z,85.00
2019-02-12T13:39:38.387Z,85.40
2019-02-12T13:42:07.088Z,85.70
2019-02-12T13:44:35.665Z,85.20
2019-02-12T13:47:04.332Z,85.70
2019-02-12T13:49:32.896Z,85.80
2019-02-12T13:52:01.496Z,85.80
2019-02-12T13:54:30.077Z,85.90
2019-02-12T13:56:58.676Z,86.30
2019-02-12T13:59:27.284Z,85.50
2019-02-12T14:01:55.874Z,86.70
2019-02-12T14:04:24.450Z,85.80
2019-02-12T14:06:53.032Z,85.40
2019-02-12T14:09:21.590Z,86.50
2019-02-12T14:11:50.240Z,85.70
2019-02-12T14:14:19.541Z,86.30
2019-02-12T14:16:48.516Z,86.10
2019-02-12T14:19:17.133Z,87.00
2019-02-12T14:21:45.767Z,85.90
2019-02-12T14:24:14.357Z,86.20
2019-02-12T14:26:42.957Z,86.10
2019-02-12T14:29:11.558Z,86.70
2019-02-12T14:31:40.149Z,86.30
2019-02-12T14:34:08.817Z,87.00
2019-02-12T14:36:37.395Z,86.90
2019-02-12T14:39:06.176Z,87.60
2019-02-12T14:41:38.178Z,87.70
2019-02-12T14:44:06.761Z,87.50
2019-02-12T14:46:35.391Z,88.30
2019-02-12T14:49:03.972Z,88.20
2019-02-12T14:51:32.652Z,88.30
2019-02-12T14:54:01.224Z,88.80
2019-02-12T14:56:29.836Z,89.10
2019-02-12T14:58:58.425Z,89.40
2019-02-12T15:01:26.998Z,89.20
2019-02-12T15:03:55.593Z,89.80
2019-02-12T15:06:24.257Z,89.80
2019-02-12T15:08:52.879Z,89.80
2019-02-12T15:11:21.465Z,90.00
2019-02-12T15:13:50.037Z,90.20
2019-02-12T15:16:18.652Z,89.80
2019-02-12T15:18:47.699Z,90.00
2019-02-12T15:21:16.411Z,90.30
2019-02-12T15:23:45.057Z,89.80
2019-02-12T15:26:13.725Z,90.10
2019-02-12T15:28:44.445Z,90.10
2019-02-12T15:31:13.031Z,90.00
2019-02-12T15:33:41.648Z,90.30
2019-02-12T15:36:10.207Z,90.40
2019-02-12T15:38:58.316Z,90.30
2019-02-12T15:41:27.086Z,90.50
2019-02-12T15:43:55.685Z,90.10
2019-02-12T15:46:24.266Z,90.30
2019-02-12T15:48:52.921Z,90.30
2019-02-12T15:51:21.533Z,90.20
2019-02-12T15:53:50.118Z,90.10
2019-02-12T15:56:18.695Z,90.20
2019-02-12T15:58:47.357Z,90.20
2019-02-12T16:01:15.916Z,90.10
2019-02-12T16:03:44.497Z,90.50
2019-02-12T16:06:13.154Z,90.20
2019-02-12T16:08:41.724Z,90.10
2019-02-12T16:11:10.295Z,90.10
2019-02-12T16:13:38.892Z,90.00
2019-02-12T16:16:08.150Z,90.10
2019-02-12T16:18:37.791Z,90.10
2019-02-12T16:21:06.376Z,90.00
2019-02-12T16:23:35.047Z,90.10
2019-02-12T16:26:03.782Z,90.00
2019-02-12T16:28:32.353Z,89.70
2019-02-12T16:31:00.956Z,90.00
2019-02-12T16:33:29.580Z,90.00
2019-02-12T16:35:58.144Z,90.10
2019-02-12T16:38:26.720Z,90.30
2019-02-12T16:40:55.341Z,90.30
2019-02-12T16:43:23.956Z,90.30
2019-02-12T16:46:08.989Z,90.40
2019-02-12T16:48:37.570Z,90.40
2019-02-12T16:51:06.140Z,90.30
2019-02-12T16:53:34.737Z,90.20
2019-02-12T16:56:08.330Z,90.20
2019-02-12T16:58:33.741Z,90.30
2019-02-12T17:01:02.388Z,90.30
2019-02-12T17:03:30.965Z,90.20
2019-02-12T17:06:00.831Z,90.10
2019-02-12T17:08:29.406Z,90.20
2019-02-12T17:10:58.020Z,90.30
2019-02-12T17:13:38.273Z,90.30
2019-02-12T17:19:54.213Z,90.50
2019-02-12T17:20:37.315Z,90.40
2019-02-12T17:22:29.990Z,90.80
2019-02-12T17:24:58.572Z,91.10
2019-02-12T17:27:36.199Z,91.20
2019-02-12T17:30:00.724Z,91.40
2019-02-12T17:32:29.371Z,91.60
2019-02-12T17:35:01.490Z,91.80
2019-02-12T17:37:28.282Z,92.30
2019-02-12T17:39:56.973Z,92.10
2019-02-12T17:42:25.865Z,92.20
2019-02-12T17:44:54.452Z,92.40
2019-02-12T17:47:23.049Z,92.50
2019-02-12T17:49:51.638Z,92.60
2019-02-12T17:52:20.259Z,92.60
2019-02-12T17:54:49.137Z,92.60
2019-02-12T17:57:17.748Z,92.70
2019-02-12T17:59:46.402Z,92.80
2019-02-12T18:02:15.028Z,92.90
2019-02-12T18:04:51.506Z,92.90
2019-02-12T18:07:20.149Z,93.00
2019-02-12T18:09:48.859Z,93.10
2019-02-12T18:12:17.511Z,93.00
2019-02-12T18:14:46.189Z,93.00
2019-02-12T18:17:14.789Z,93.10
2019-02-12T18:19:43.400Z,92.90
2019-02-12T18:22:12.033Z,92.80
2019-02-12T18:24:40.634Z,92.80
2019-02-12T18:27:12.260Z,92.70
2019-02-12T18:29:40.868Z,92.70
2019-02-12T18:32:09.456Z,92.60
2019-02-12T18:34:38.032Z,92.60
2019-02-12T18:37:06.613Z,92.70
2019-02-12T18:39:35.469Z,92.80
2019-02-12T18:42:04.110Z,92.80
2019-02-12T18:44:32.768Z,92.90
2019-02-12T18:47:01.373Z,92.90
2019-02-12T18:49:30.265Z,92.80
2019-02-12T18:51:58.923Z,92.70
2019-02-12T18:54:27.518Z,92.70
2019-02-12T18:56:56.124Z,92.70
2019-02-12T18:59:24.731Z,92.60
2019-02-12T19:01:53.355Z,92.50
2019-02-12T19:04:22.035Z,92.50
2019-02-12T19:06:50.683Z,92.60
2019-02-12T19:09:19.315Z,92.70
2019-02-12T19:11:54.388Z,92.70
2019-02-12T19:14:21.556Z,92.70
2019-02-12T19:16:50.291Z,92.70
2019-02-12T19:19:18.864Z,92.70
2019-02-12T19:21:47.604Z,92.50
2019-02-12T19:24:16.244Z,92.20
2019-02-12T19:26:49.784Z,91.80
2019-02-12T19:29:15.157Z,91.60
2019-02-12T19:31:43.743Z,91.60
2019-02-12T19:34:12.329Z,91.40
2019-02-12T19:36:40.922Z,91.50
2019-02-12T19:39:09.585Z,91.50
2019-02-12T19:41:38.143Z,91.60
2019-02-12T19:44:07.074Z,91.60
2019-02-12T19:46:35.648Z,91.40
2019-02-12T19:49:04.240Z,91.30
2019-02-12T19:51:32.828Z,91.00
2019-02-12T19:54:01.440Z,90.80
2019-02-12T19:56:30.045Z,90.90
2019-02-12T19:58:58.629Z,91.00
2019-02-12T20:01:27.208Z,91.10
2019-02-12T20:03:55.876Z,91.20
2019-02-12T20:06:24.454Z,91.70
2019-02-12T20:08:53.366Z,91.40
2019-02-12T20:11:21.966Z,91.40
2019-02-12T20:13:50.653Z,91.50
2019-02-12T20:16:19.301Z,91.70
2019-02-12T20:18:47.979Z,91.60
2019-02-12T20:21:16.685Z,91.50
2019-02-12T20:23:45.368Z,91.60
2019-02-12T20:26:33.509Z,91.70
2019-02-12T20:29:02.093Z,91.80
2019-02-12T20:31:31.974Z,91.80
2019-02-12T20:34:00.773Z,91.90
2019-02-12T20:36:29.367Z,92.00
2019-02-12T20:38:58.248Z,92.10
2019-02-12T20:41:27.145Z,92.20
2019-02-12T20:43:55.857Z,92.40
2019-02-12T20:46:24.452Z,92.50
2019-02-12T20:48:53.043Z,92.50
2019-02-12T20:51:21.655Z,92.60
2019-02-12T20:53:50.376Z,92.50
2019-02-12T20:56:18.973Z,92.40
2019-02-12T20:58:50.128Z,92.50
2019-02-12T21:01:18.763Z,92.60
2019-02-12T21:03:47.412Z,92.50
2019-02-12T21:06:16.057Z,92.50
2019-02-12T21:08:45.005Z,92.50
2019-02-12T21:11:13.666Z,92.30
2019-02-12T21:13:42.459Z,92.30
2019-02-12T21:16:11.105Z,92.10
2019-02-12T21:18:39.692Z,92.10
2019-02-12T21:21:08.377Z,91.80
2019-02-12T21:23:36.939Z,91.70
2019-02-12T21:26:05.530Z,91.60
2019-02-12T21:28:34.219Z,91.40
2019-02-12T21:31:02.838Z,91.30
2019-02-12T21:33:31.433Z,91.20
2019-02-12T21:36:00.030Z,91.10
2019-02-12T21:38:28.670Z,91.10
2019-02-12T21:40:57.244Z,91.30
2019-02-12T21:43:25.833Z,91.30
2019-02-12T21:45:54.416Z,91.40
2019-02-12T21:48:23.063Z,91.10
2019-02-12T21:50:51.645Z,90.90
2019-02-12T21:53:20.240Z,90.70
2019-02-12T21:55:49.007Z,90.70
2019-02-12T21:58:17.633Z,90.70
2019-02-12T22:00:46.206Z,90.50
2019-02-12T22:03:14.882Z,90.60
2019-02-12T22:05:47.315Z,90.70
2019-02-12T22:08:15.897Z,90.50
2019-02-12T22:10:46.328Z,90.50
2019-02-12T22:13:16.291Z,90.40
2019-02-12T22:15:44.899Z,90.50
2019-02-12T22:18:13.488Z,90.40
2019-02-12T22:20:42.109Z,90.40
2019-02-12T22:23:10.788Z,90.40
2019-02-12T22:25:40.741Z,90.40
2019-02-12T22:28:09.288Z,90.50
2019-02-12T22:30:37.870Z,90.30
2019-02-12T22:33:06.447Z,90.40
2019-02-12T22:35:35.327Z,90.40
2019-02-12T22:38:04.332Z,90.40
2019-02-12T22:40:33.333Z,90.60
2019-02-12T22:43:01.936Z,90.60
2019-02-12T22:45:30.498Z,90.70
2019-02-12T22:47:59.069Z,90.60
2019-02-12T22:50:27.704Z,90.80
2019-02-12T22:52:56.529Z,90.70
2019-02-12T22:55:25.107Z,90.70
2019-02-12T22:57:53.977Z,90.70
2019-02-12T23:00:46.153Z,90.70
2019-02-12T23:03:14.764Z,90.80
2019-02-12T23:05:44.696Z,90.70
2019-02-12T23:08:13.271Z,90.80
2019-02-12T23:10:42.181Z,90.80
2019-02-12T23:13:10.760Z,90.80
2019-02-12T23:15:39.360Z,91.20
2019-02-12T23:18:07.939Z,90.90
2019-02-12T23:20:36.507Z,91.10
2019-02-12T23:23:05.081Z,91.30
2019-02-12T23:25:33.757Z,91.30
2019-02-12T23:28:02.356Z,91.30
2019-02-12T23:30:30.951Z,91.10
2019-02-12T23:32:59.533Z,91.00
2019-02-12T23:35:28.121Z,90.90
2019-02-12T23:37:56.774Z,91.00
2019-02-12T23:40:25.469Z,91.10
2019-02-12T23:42:54.072Z,91.20
2019-02-12T23:45:22.703Z,91.10
2019-02-12T23:47:51.289Z,91.20
2019-02-12T23:50:19.898Z,91.40
2019-02-12T23:52:48.624Z,91.50
2019-02-12T23:55:17.217Z,91.50
2019-02-12T23:57:45.788Z,91.50
